sensor_id;sensor_type;location;lat;lon;timestamp;pressure;altitude;pressure_sealevel;temperature;humidity
54236;BME280;40151;43.606;1.472;2023-06-10T00:02:10;98935.66;;;24.43;57.34
54236;BME280;40151;43.606;1.472;2023-06-10T00:04:35;98932.13;;;24.43;57.59
54236;BME280;40151;43.606;1.472;2023-06-10T00:07:05;98934.09;;;24.40;57.40
54236;BME280;40151;43.606;1.472;2023-06-10T00:09:35;98920.88;;;24.39;57.26
54236;BME280;40151;43.606;1.472;2023-06-10T00:12:02;98918.09;;;24.40;57.20
54236;BME280;40151;43.606;1.472;2023-06-10T00:14:28;98919.78;;;24.42;57.43
54236;BME280;40151;43.606;1.472;2023-06-10T00:16:53;98921.47;;;24.43;57.15
54236;BME280;40151;43.606;1.472;2023-06-10T00:19:18;98911.78;;;24.42;57.25
54236;BME280;40151;43.606;1.472;2023-06-10T00:21:44;98913.59;;;24.41;57.46
54236;BME280;40151;43.606;1.472;2023-06-10T00:24:10;98916.41;;;24.39;57.33
54236;BME280;40151;43.606;1.472;2023-06-10T00:26:38;98910.78;;;24.43;57.31
54236;BME280;40151;43.606;1.472;2023-06-10T00:29:04;98907.41;;;24.40;57.19
54236;BME280;40151;43.606;1.472;2023-06-10T00:31:30;98907.41;;;24.40;57.42
54236;BME280;40151;43.606;1.472;2023-06-10T00:33:56;98905.72;;;24.39;57.34
54236;BME280;40151;43.606;1.472;2023-06-10T00:36:21;98911.06;;;24.39;57.12
54236;BME280;40151;43.606;1.472;2023-06-10T00:38:46;98906.56;;;24.40;56.94
54236;BME280;40151;43.606;1.472;2023-06-10T00:41:12;98900.41;;;24.39;57.20
54236;BME280;40151;43.606;1.472;2023-06-10T00:43:37;98905.84;;;24.38;57.36
54236;BME280;40151;43.606;1.472;2023-06-10T00:46:03;98895.31;;;24.36;57.22
54236;BME280;40151;43.606;1.472;2023-06-10T00:48:28;98896.88;;;24.39;57.02
54236;BME280;40151;43.606;1.472;2023-06-10T00:50:54;98897.00;;;24.37;56.94
54236;BME280;40151;43.606;1.472;2023-06-10T00:53:21;98895.91;;;24.40;56.95
54236;BME280;40151;43.606;1.472;2023-06-10T00:55:47;98900.66;;;24.36;57.12
54236;BME280;40151;43.606;1.472;2023-06-10T00:58:13;98903.31;;;24.36;57.02
54236;BME280;40151;43.606;1.472;2023-06-10T01:00:39;98904.16;;;24.37;56.79
54236;BME280;40151;43.606;1.472;2023-06-10T01:03:04;98903.47;;;24.35;57.01
54236;BME280;40151;43.606;1.472;2023-06-10T01:05:36;98908.63;;;24.36;57.00
54236;BME280;40151;43.606;1.472;2023-06-10T01:10:57;98902.59;;;24.34;56.85
54236;BME280;40151;43.606;1.472;2023-06-10T01:13:25;98912.56;;;24.32;56.82
54236;BME280;40151;43.606;1.472;2023-06-10T01:15:55;98910.72;;;24.33;56.83
54236;BME280;40151;43.606;1.472;2023-06-10T01:18:21;98910.13;;;24.29;56.73
54236;BME280;40151;43.606;1.472;2023-06-10T01:20:46;98902.84;;;24.31;56.88
54236;BME280;40151;43.606;1.472;2023-06-10T01:23:14;98902.84;;;24.31;56.86
54236;BME280;40151;43.606;1.472;2023-06-10T01:25:41;98903.13;;;24.28;56.78
54236;BME280;40151;43.606;1.472;2023-06-10T01:30:59;98903.94;;;24.29;56.92
54236;BME280;40151;43.606;1.472;2023-06-10T01:33:35;98907.75;;;24.26;56.85
54236;BME280;40151;43.606;1.472;2023-06-10T01:36:02;98909.44;;;24.27;56.65
54236;BME280;40151;43.606;1.472;2023-06-10T01:38:31;98908.69;;;24.25;56.65
54236;BME280;40151;43.606;1.472;2023-06-10T01:40:58;98908.84;;;24.23;56.61
54236;BME280;40151;43.606;1.472;2023-06-10T01:43:25;98905.31;;;24.23;56.90
54236;BME280;40151;43.606;1.472;2023-06-10T01:45:50;98911.38;;;24.25;56.58
54236;BME280;40151;43.606;1.472;2023-06-10T01:48:16;98908.00;;;24.23;56.62
54236;BME280;40151;43.606;1.472;2023-06-10T01:50:41;98910.66;;;24.23;56.62
54236;BME280;40151;43.606;1.472;2023-06-10T01:53:09;98910.66;;;24.23;56.66
54236;BME280;40151;43.606;1.472;2023-06-10T01:55:34;98905.56;;;24.20;56.77
54236;BME280;40151;43.606;1.472;2023-06-10T01:57:59;98899.13;;;24.22;56.80
54236;BME280;40151;43.606;1.472;2023-06-10T02:00:25;98903.75;;;24.20;56.63
54236;BME280;40151;43.606;1.472;2023-06-10T02:02:50;98903.06;;;24.18;56.80
54236;BME280;40151;43.606;1.472;2023-06-10T02:05:16;98904.16;;;24.16;56.68
54236;BME280;40151;43.606;1.472;2023-06-10T02:07:41;98904.16;;;24.16;56.75
54236;BME280;40151;43.606;1.472;2023-06-10T02:10:08;98908.63;;;24.15;56.76
54236;BME280;40151;43.606;1.472;2023-06-10T02:12:33;98910.19;;;24.18;56.58
54236;BME280;40151;43.606;1.472;2023-06-10T02:14:58;98916.50;;;24.17;56.84
54236;BME280;40151;43.606;1.472;2023-06-10T02:17:24;98917.47;;;24.16;56.60
54236;BME280;40151;43.606;1.472;2023-06-10T02:19:49;98905.84;;;24.17;56.83
54236;BME280;40151;43.606;1.472;2023-06-10T02:22:20;98919.41;;;24.13;56.82
54236;BME280;40151;43.606;1.472;2023-06-10T02:24:45;98909.72;;;24.12;56.68
54236;BME280;40151;43.606;1.472;2023-06-10T02:27:11;98915.06;;;24.12;56.74
54236;BME280;40151;43.606;1.472;2023-06-10T02:29:36;98916.03;;;24.11;56.94
54236;BME280;40151;43.606;1.472;2023-06-10T02:32:02;98919.41;;;24.13;56.67
54236;BME280;40151;43.606;1.472;2023-06-10T02:34:28;98924.03;;;24.11;56.64
54236;BME280;40151;43.606;1.472;2023-06-10T02:36:53;98917.00;;;24.10;56.76
54236;BME280;40151;43.606;1.472;2023-06-10T02:39:19;98923.44;;;24.08;56.68
54236;BME280;40151;43.606;1.472;2023-06-10T02:41:44;98924.31;;;24.08;56.72
54236;BME280;40151;43.606;1.472;2023-06-10T02:44:10;98929.63;;;24.08;56.70
54236;BME280;40151;43.606;1.472;2023-06-10T02:46:35;98926.19;;;24.06;56.67
54236;BME280;40151;43.606;1.472;2023-06-10T02:49:01;98925.38;;;24.06;56.85
54236;BME280;40151;43.606;1.472;2023-06-10T02:51:26;98921.63;;;24.08;56.73
54236;BME280;40151;43.606;1.472;2023-06-10T02:53:52;98928.16;;;24.04;56.85
54236;BME280;40151;43.606;1.472;2023-06-10T02:56:18;98921.13;;;24.03;56.68
54236;BME280;40151;43.606;1.472;2023-06-10T02:58:43;98921.97;;;24.04;56.70
54236;BME280;40151;43.606;1.472;2023-06-10T03:01:09;98929.84;;;24.05;56.70
54236;BME280;40151;43.606;1.472;2023-06-10T03:03:35;98930.06;;;24.02;56.84
54236;BME280;40151;43.606;1.472;2023-06-10T03:06:02;98928.16;;;24.04;56.75
54236;BME280;40151;43.606;1.472;2023-06-10T03:08:28;98930.06;;;24.02;56.46
54236;BME280;40151;43.606;1.472;2023-06-10T03:10:53;98928.66;;;23.98;56.93
54236;BME280;40151;43.606;1.472;2023-06-10T03:13:19;98941.00;;;23.99;56.84
54236;BME280;40151;43.606;1.472;2023-06-10T03:15:44;98941.25;;;23.96;56.95
54236;BME280;40151;43.606;1.472;2023-06-10T03:18:11;98937.63;;;23.97;57.00
54236;BME280;40151;43.606;1.472;2023-06-10T03:20:36;98928.66;;;23.98;56.90
54236;BME280;40151;43.606;1.472;2023-06-10T03:23:04;98938.47;;;23.97;57.01
54236;BME280;40151;43.606;1.472;2023-06-10T03:25:31;98937.63;;;23.97;56.75
54236;BME280;40151;43.606;1.472;2023-06-10T03:27:57;98940.16;;;23.98;56.65
54236;BME280;40151;43.606;1.472;2023-06-10T03:30:22;98945.47;;;23.98;56.71
54236;BME280;40151;43.606;1.472;2023-06-10T03:32:47;98941.00;;;23.99;56.57
54236;BME280;40151;43.606;1.472;2023-06-10T03:35:14;98938.47;;;23.97;56.52
54236;BME280;40151;43.606;1.472;2023-06-10T03:37:40;98940.16;;;23.98;56.58
54236;BME280;40151;43.606;1.472;2023-06-10T03:40:07;98948.28;;;23.97;56.46
54236;BME280;40151;43.606;1.472;2023-06-10T03:42:33;98958.94;;;23.97;56.59
54236;BME280;40151;43.606;1.472;2023-06-10T03:44:59;98955.53;;;23.95;56.51
54236;BME280;40151;43.606;1.472;2023-06-10T03:47:24;98957.22;;;23.96;56.62
54236;BME280;40151;43.606;1.472;2023-06-10T03:49:50;98957.22;;;23.96;56.53
54236;BME280;40151;43.606;1.472;2023-06-10T03:52:15;98958.78;;;23.98;56.77
54236;BME280;40151;43.606;1.472;2023-06-10T03:54:40;98953.84;;;23.94;56.73
54236;BME280;40151;43.606;1.472;2023-06-10T03:57:06;98956.63;;;23.92;56.62
54236;BME280;40151;43.606;1.472;2023-06-10T03:59:31;98963.22;;;23.88;56.77
54236;BME280;40151;43.606;1.472;2023-06-10T04:01:57;98966.47;;;23.92;56.75
54236;BME280;40151;43.606;1.472;2023-06-10T04:04:23;98966.59;;;23.90;56.45
54236;BME280;40151;43.606;1.472;2023-06-10T04:06:49;98970.94;;;23.91;56.67
54236;BME280;40151;43.606;1.472;2023-06-10T04:09:15;98972.03;;;23.89;56.80
54236;BME280;40151;43.606;1.472;2023-06-10T04:11:41;98974.56;;;23.90;56.77
54236;BME280;40151;43.606;1.472;2023-06-10T04:14:07;98975.28;;;23.92;56.04
54236;BME280;40151;43.606;1.472;2023-06-10T04:16:33;98971.78;;;23.92;56.43
54236;BME280;40151;43.606;1.472;2023-06-10T04:18:59;98975.44;;;23.91;56.59
54236;BME280;40151;43.606;1.472;2023-06-10T04:21:26;98979.78;;;23.92;56.49
54236;BME280;40151;43.606;1.472;2023-06-10T04:23:51;98978.22;;;23.89;56.80
54236;BME280;40151;43.606;1.472;2023-06-10T04:26:17;98984.38;;;23.90;56.50
54236;BME280;40151;43.606;1.472;2023-06-10T04:28:43;98989.69;;;23.90;56.33
54236;BME280;40151;43.606;1.472;2023-06-10T04:31:08;98981.84;;;23.88;56.60
54236;BME280;40151;43.606;1.472;2023-06-10T04:33:35;98992.53;;;23.88;56.57
54236;BME280;40151;43.606;1.472;2023-06-10T04:36:01;98987.19;;;23.88;56.73
54236;BME280;40151;43.606;1.472;2023-06-10T04:38:27;98990.78;;;23.87;56.56
54236;BME280;40151;43.606;1.472;2023-06-10T04:40:52;98995.28;;;23.86;56.58
54236;BME280;40151;43.606;1.472;2023-06-10T04:43:18;98989.69;;;23.90;56.54
54236;BME280;40151;43.606;1.472;2023-06-10T04:45:43;98997.97;;;23.86;56.34
54236;BME280;40151;43.606;1.472;2023-06-10T04:48:10;98991.66;;;23.87;56.42
54236;BME280;40151;43.606;1.472;2023-06-10T04:50:36;98995.28;;;23.86;56.23
54236;BME280;40151;43.606;1.472;2023-06-10T04:53:01;99001.47;;;23.87;56.33
54236;BME280;40151;43.606;1.472;2023-06-10T04:55:27;98998.56;;;23.90;56.43
54236;BME280;40151;43.606;1.472;2023-06-10T04:57:52;98998.69;;;23.89;56.23
54236;BME280;40151;43.606;1.472;2023-06-10T05:00:18;98994.31;;;23.87;56.38
54236;BME280;40151;43.606;1.472;2023-06-10T05:02:43;98996.97;;;23.87;56.48
54236;BME280;40151;43.606;1.472;2023-06-10T05:05:10;99001.34;;;23.89;56.22
54236;BME280;40151;43.606;1.472;2023-06-10T05:07:35;99000.63;;;23.86;56.22
54236;BME280;40151;43.606;1.472;2023-06-10T05:10:01;98996.13;;;23.87;56.36
54236;BME280;40151;43.606;1.472;2023-06-10T05:12:26;99001.34;;;23.89;56.41
54236;BME280;40151;43.606;1.472;2023-06-10T05:14:52;98998.69;;;23.89;56.28
54236;BME280;40151;43.606;1.472;2023-06-10T05:17:17;98998.78;;;23.87;56.48
54236;BME280;40151;43.606;1.472;2023-06-10T05:19:43;99010.06;;;23.91;56.18
54236;BME280;40151;43.606;1.472;2023-06-10T05:22:09;99003.78;;;23.92;56.14
54236;BME280;40151;43.606;1.472;2023-06-10T05:24:34;99009.09;;;23.92;56.08
54236;BME280;40151;43.606;1.472;2023-06-10T05:27:00;99008.34;;;23.90;56.07
54236;BME280;40151;43.606;1.472;2023-06-10T05:29:25;99010.06;;;23.91;56.33
54236;BME280;40151;43.606;1.472;2023-06-10T05:31:51;99005.47;;;23.93;56.11
54236;BME280;40151;43.606;1.472;2023-06-10T05:34:16;99007.41;;;23.91;56.27
54236;BME280;40151;43.606;1.472;2023-06-10T05:36:42;99008.13;;;23.93;56.26
54236;BME280;40151;43.606;1.472;2023-06-10T05:39:09;99007.16;;;23.94;56.10
54236;BME280;40151;43.606;1.472;2023-06-10T05:41:34;99007.16;;;23.94;55.96
54236;BME280;40151;43.606;1.472;2023-06-10T05:44:00;99008.00;;;23.94;55.99
54236;BME280;40151;43.606;1.472;2023-06-10T05:46:25;99018.78;;;23.93;56.11
54236;BME280;40151;43.606;1.472;2023-06-10T05:48:51;99011.66;;;23.93;56.16
54236;BME280;40151;43.606;1.472;2023-06-10T05:51:16;99015.72;;;23.97;56.00
54236;BME280;40151;43.606;1.472;2023-06-10T05:53:41;99015.72;;;23.97;56.00
54236;BME280;40151;43.606;1.472;2023-06-10T05:56:07;99011.97;;;24.00;55.96
54236;BME280;40151;43.606;1.472;2023-06-10T05:58:33;99019.25;;;23.98;55.84
54236;BME280;40151;43.606;1.472;2023-06-10T06:00:58;99019.25;;;23.98;55.87
54236;BME280;40151;43.606;1.472;2023-06-10T06:03:23;99019.25;;;23.98;55.96
54236;BME280;40151;43.606;1.472;2023-06-10T06:05:49;99029.66;;;24.01;56.04
54236;BME280;40151;43.606;1.472;2023-06-10T06:08:14;99024.31;;;24.01;56.01
54236;BME280;40151;43.606;1.472;2023-06-10T06:10:44;99026.28;;;23.99;55.62
54236;BME280;40151;43.606;1.472;2023-06-10T06:13:09;99034.00;;;24.02;55.71
54236;BME280;40151;43.606;1.472;2023-06-10T06:15:35;99028.81;;;24.00;55.84
54236;BME280;40151;43.606;1.472;2023-06-10T06:18:00;99033.28;;;24.00;56.07
54236;BME280;40151;43.606;1.472;2023-06-10T06:20:25;99028.69;;;24.02;55.97
54236;BME280;40151;43.606;1.472;2023-06-10T06:22:51;99031.34;;;24.02;55.88
54236;BME280;40151;43.606;1.472;2023-06-10T06:25:16;99028.56;;;24.04;55.96
54236;BME280;40151;43.606;1.472;2023-06-10T06:27:42;99036.44;;;24.05;55.78
54236;BME280;40151;43.606;1.472;2023-06-10T06:30:07;99037.41;;;24.04;56.18
54236;BME280;40151;43.606;1.472;2023-06-10T06:32:33;99045.41;;;24.04;56.15
54236;BME280;40151;43.606;1.472;2023-06-10T06:34:58;99049.75;;;24.05;56.35
54236;BME280;40151;43.606;1.472;2023-06-10T06:37:24;99042.75;;;24.04;56.01
54236;BME280;40151;43.606;1.472;2023-06-10T06:39:51;99051.56;;;24.05;56.24
54236;BME280;40151;43.606;1.472;2023-06-10T06:42:17;99044.56;;;24.04;56.06
54236;BME280;40151;43.606;1.472;2023-06-10T06:44:43;99045.28;;;24.06;55.98
54236;BME280;40151;43.606;1.472;2023-06-10T06:47:08;99044.44;;;24.05;56.14
54236;BME280;40151;43.606;1.472;2023-06-10T06:49:34;99046.91;;;24.08;56.25
54236;BME280;40151;43.606;1.472;2023-06-10T06:51:59;99045.19;;;24.07;56.04
54236;BME280;40151;43.606;1.472;2023-06-10T06:54:25;99038.75;;;24.10;56.33
54236;BME280;40151;43.606;1.472;2023-06-10T06:56:50;99042.16;;;24.12;55.84
54236;BME280;40151;43.606;1.472;2023-06-10T06:59:16;99042.00;;;24.13;56.02
54236;BME280;40151;43.606;1.472;2023-06-10T07:01:44;99047.50;;;24.12;56.15
54236;BME280;40151;43.606;1.472;2023-06-10T07:04:10;99040.81;;;24.18;55.79
54236;BME280;40151;43.606;1.472;2023-06-10T07:06:35;99050.25;;;24.22;55.80
54236;BME280;40151;43.606;1.472;2023-06-10T07:09:01;99058.50;;;24.19;55.57
54236;BME280;40151;43.606;1.472;2023-06-10T07:11:26;99056.78;;;24.18;55.95
54236;BME280;40151;43.606;1.472;2023-06-10T07:13:52;99060.19;;;24.20;55.81
54236;BME280;40151;43.606;1.472;2023-06-10T07:16:17;99052.91;;;24.22;55.74
54236;BME280;40151;43.606;1.472;2023-06-10T07:18:45;99059.94;;;24.23;55.69
54236;BME280;40151;43.606;1.472;2023-06-10T07:21:11;99058.25;;;24.22;55.71
54236;BME280;40151;43.606;1.472;2023-06-10T07:23:36;99055.59;;;24.22;55.80
54236;BME280;40151;43.606;1.472;2023-06-10T07:26:02;99057.38;;;24.21;55.85
54236;BME280;40151;43.606;1.472;2023-06-10T07:28:27;99055.31;;;24.25;55.64
54236;BME280;40151;43.606;1.472;2023-06-10T07:30:52;99056.28;;;24.24;55.83
54236;BME280;40151;43.606;1.472;2023-06-10T07:33:18;99050.97;;;24.24;55.82
54236;BME280;40151;43.606;1.472;2023-06-10T07:35:43;99057.28;;;24.23;55.73
54236;BME280;40151;43.606;1.472;2023-06-10T07:38:09;99054.59;;;24.23;55.88
54236;BME280;40151;43.606;1.472;2023-06-10T07:40:34;99059.69;;;24.26;55.78
54236;BME280;40151;43.606;1.472;2023-06-10T07:42:59;99061.50;;;24.25;55.69
54236;BME280;40151;43.606;1.472;2023-06-10T07:45:25;99069.50;;;24.25;56.02
54236;BME280;40151;43.606;1.472;2023-06-10T07:47:50;99063.31;;;24.25;55.76
54236;BME280;40151;43.606;1.472;2023-06-10T07:50:16;99070.38;;;24.26;55.88
54236;BME280;40151;43.606;1.472;2023-06-10T07:52:41;99066.47;;;24.30;55.57
54236;BME280;40151;43.606;1.472;2023-06-10T07:55:07;99068.16;;;24.31;55.70
54236;BME280;40151;43.606;1.472;2023-06-10T07:57:32;99073.47;;;24.31;55.68
54236;BME280;40151;43.606;1.472;2023-06-10T08:00:05;99076.88;;;24.33;55.69
54236;BME280;40151;43.606;1.472;2023-06-10T08:02:31;99071.28;;;24.36;55.57
54236;BME280;40151;43.606;1.472;2023-06-10T08:04:56;99073.84;;;24.38;55.51
54236;BME280;40151;43.606;1.472;2023-06-10T08:07:22;99075.53;;;24.39;55.66
54236;BME280;40151;43.606;1.472;2023-06-10T08:09:47;99079.75;;;24.42;55.58
54236;BME280;40151;43.606;1.472;2023-06-10T08:12:13;99069.09;;;24.42;55.72
54236;BME280;40151;43.606;1.472;2023-06-10T08:14:39;99074.03;;;24.46;55.32
54236;BME280;40151;43.606;1.472;2023-06-10T08:17:04;99074.19;;;24.45;55.56
54236;BME280;40151;43.606;1.472;2023-06-10T08:19:31;99075.88;;;24.46;55.67
54236;BME280;40151;43.606;1.472;2023-06-10T08:21:56;99079.03;;;24.51;55.54
54236;BME280;40151;43.606;1.472;2023-06-10T08:24:22;99077.34;;;24.50;55.41
54236;BME280;40151;43.606;1.472;2023-06-10T08:26:47;99079.84;;;24.51;55.31
54236;BME280;40151;43.606;1.472;2023-06-10T08:29:13;99076.25;;;24.52;55.38
54236;BME280;40151;43.606;1.472;2023-06-10T08:31:43;99077.06;;;24.53;55.63
54236;BME280;40151;43.606;1.472;2023-06-10T08:34:08;99083.84;;;24.57;55.29
54236;BME280;40151;43.606;1.472;2023-06-10T08:36:34;99079.09;;;24.61;55.18
54236;BME280;40151;43.606;1.472;2023-06-10T08:38:59;99088.69;;;24.63;55.01
54236;BME280;40151;43.606;1.472;2023-06-10T08:41:25;99090.38;;;24.64;54.88
54236;BME280;40151;43.606;1.472;2023-06-10T08:44:10;99089.16;;;24.69;54.74
54236;BME280;40151;43.606;1.472;2023-06-10T08:46:38;99089.84;;;24.71;54.86
54236;BME280;40151;43.606;1.472;2023-06-10T08:49:06;99091.53;;;24.72;55.01
54236;BME280;40151;43.606;1.472;2023-06-10T08:51:35;99093.22;;;24.73;54.93
54236;BME280;40151;43.606;1.472;2023-06-10T08:54:05;99090.44;;;24.74;54.98
54236;BME280;40151;43.606;1.472;2023-06-10T08:56:38;99096.63;;;24.75;54.87
54236;BME280;40151;43.606;1.472;2023-06-10T08:59:05;99092.13;;;24.75;54.66
54236;BME280;40151;43.606;1.472;2023-06-10T09:01:30;99089.34;;;24.77;54.89
54236;BME280;40151;43.606;1.472;2023-06-10T09:03:57;99096.38;;;24.78;55.04
54236;BME280;40151;43.606;1.472;2023-06-10T09:06:24;99095.28;;;24.80;54.80
54236;BME280;40151;43.606;1.472;2023-06-10T09:08:50;99096.16;;;24.81;54.98
54236;BME280;40151;43.606;1.472;2023-06-10T09:11:16;99089.84;;;24.82;55.32
54236;BME280;40151;43.606;1.472;2023-06-10T09:13:41;99098.56;;;24.84;55.29
54236;BME280;40151;43.606;1.472;2023-06-10T09:16:07;99102.94;;;24.85;55.04
54236;BME280;40151;43.606;1.472;2023-06-10T09:18:32;99100.13;;;24.87;55.40
54236;BME280;40151;43.606;1.472;2023-06-10T09:20:59;99101.00;;;24.87;55.21
54236;BME280;40151;43.606;1.472;2023-06-10T09:23:25;99100.00;;;24.88;55.26
54236;BME280;40151;43.606;1.472;2023-06-10T09:25:57;99101.56;;;24.91;55.18
54236;BME280;40151;43.606;1.472;2023-06-10T09:28:23;99100.47;;;24.93;54.97
54236;BME280;40151;43.606;1.472;2023-06-10T09:30:49;99096.81;;;24.94;55.05
54236;BME280;40151;43.606;1.472;2023-06-10T09:33:15;99103.72;;;24.97;55.32
54236;BME280;40151;43.606;1.472;2023-06-10T09:35:48;99105.41;;;24.98;55.08
54236;BME280;40151;43.606;1.472;2023-06-10T09:38:21;99096.59;;;24.98;55.42
54236;BME280;40151;43.606;1.472;2023-06-10T09:40:54;99095.59;;;24.99;55.10
54236;BME280;40151;43.606;1.472;2023-06-10T09:43:20;99096.31;;;25.01;55.20
54236;BME280;40151;43.606;1.472;2023-06-10T09:45:50;99098.84;;;25.02;55.39
54236;BME280;40151;43.606;1.472;2023-06-10T09:48:18;99089.03;;;25.03;55.14
54236;BME280;40151;43.606;1.472;2023-06-10T09:50:44;99088.75;;;25.06;55.37
54236;BME280;40151;43.606;1.472;2023-06-10T09:53:10;99090.44;;;25.07;55.23
54236;BME280;40151;43.606;1.472;2023-06-10T09:55:39;99088.53;;;25.09;55.48
54236;BME280;40151;43.606;1.472;2023-06-10T09:58:06;99093.84;;;25.09;55.53
54236;BME280;40151;43.606;1.472;2023-06-10T10:00:34;99088.25;;;25.12;55.51
54236;BME280;40151;43.606;1.472;2023-06-10T10:03:00;99090.78;;;25.14;55.18
54236;BME280;40151;43.606;1.472;2023-06-10T10:05:27;99084.59;;;25.13;55.31
54236;BME280;40151;43.606;1.472;2023-06-10T10:07:53;99083.59;;;25.14;55.62
54236;BME280;40151;43.606;1.472;2023-06-10T10:10:21;99086.16;;;25.16;55.55
54236;BME280;40151;43.606;1.472;2023-06-10T10:12:48;99091.38;;;25.17;55.07
54236;BME280;40151;43.606;1.472;2023-06-10T10:15:16;99086.03;;;25.17;55.60
54236;BME280;40151;43.606;1.472;2023-06-10T10:18:03;99085.78;;;25.20;55.37
54236;BME280;40151;43.606;1.472;2023-06-10T10:20:33;99084.81;;;25.22;55.67
54236;BME280;40151;43.606;1.472;2023-06-10T10:23:02;99083.81;;;25.23;55.61
54236;BME280;40151;43.606;1.472;2023-06-10T10:25:32;99087.31;;;25.23;55.39
54236;BME280;40151;43.606;1.472;2023-06-10T10:28:09;99088.19;;;25.24;55.18
54236;BME280;40151;43.606;1.472;2023-06-10T10:30:40;99082.72;;;25.25;55.17
54236;BME280;40151;43.606;1.472;2023-06-10T10:33:27;99076.25;;;25.28;55.28
54236;BME280;40151;43.606;1.472;2023-06-10T10:35:57;99081.59;;;25.28;54.91
54236;BME280;40151;43.606;1.472;2023-06-10T10:38:23;99081.47;;;25.29;55.13
54236;BME280;40151;43.606;1.472;2023-06-10T10:40:50;99081.34;;;25.31;54.87
54236;BME280;40151;43.606;1.472;2023-06-10T10:43:16;99074.06;;;25.33;55.22
54236;BME280;40151;43.606;1.472;2023-06-10T10:45:45;99074.06;;;25.33;55.06
54236;BME280;40151;43.606;1.472;2023-06-10T10:48:11;99079.13;;;25.36;55.09
54236;BME280;40151;43.606;1.472;2023-06-10T10:50:38;99077.19;;;25.38;55.15
54236;BME280;40151;43.606;1.472;2023-06-10T10:53:04;99080.56;;;25.40;55.34
54236;BME280;40151;43.606;1.472;2023-06-10T10:55:30;99072.41;;;25.42;55.30
54236;BME280;40151;43.606;1.472;2023-06-10T10:57:58;99074.81;;;25.45;54.96
54236;BME280;40151;43.606;1.472;2023-06-10T11:00:32;99074.69;;;25.46;55.32
54236;BME280;40151;43.606;1.472;2023-06-10T11:03:06;99078.06;;;25.48;55.29
54236;BME280;40151;43.606;1.472;2023-06-10T11:05:41;99074.41;;;25.50;55.25
54236;BME280;40151;43.606;1.472;2023-06-10T11:08:09;99075.13;;;25.52;54.92
54236;BME280;40151;43.606;1.472;2023-06-10T11:10:36;99074.16;;;25.53;55.25
54236;BME280;40151;43.606;1.472;2023-06-10T11:13:12;99081.22;;;25.54;55.03
54236;BME280;40151;43.606;1.472;2023-06-10T11:15:49;99082.91;;;25.55;54.63
54236;BME280;40151;43.606;1.472;2023-06-10T11:18:20;99068.59;;;25.56;55.15
54236;BME280;40151;43.606;1.472;2023-06-10T11:20:51;99065.75;;;25.57;54.59
54236;BME280;40151;43.606;1.472;2023-06-10T11:25:51;99070.00;;;25.60;54.51
54236;BME280;40151;43.606;1.472;2023-06-10T11:28:18;99068.06;;;25.62;54.96
54236;BME280;40151;43.606;1.472;2023-06-10T11:30:44;99065.22;;;25.64;55.09
54236;BME280;40151;43.606;1.472;2023-06-10T11:33:14;99067.06;;;25.63;54.84
54236;BME280;40151;43.606;1.472;2023-06-10T11:35:40;99062.41;;;25.65;54.78
54236;BME280;40151;43.606;1.472;2023-06-10T11:38:06;99057.78;;;25.67;54.61
54236;BME280;40151;43.606;1.472;2023-06-10T11:40:31;99052.31;;;25.69;54.75
54236;BME280;40151;43.606;1.472;2023-06-10T11:42:57;99056.66;;;25.70;54.51
54236;BME280;40151;43.606;1.472;2023-06-10T11:45:23;99055.84;;;25.69;55.56
54236;BME280;40151;43.606;1.472;2023-06-10T11:47:58;99045.84;;;25.71;54.99
54236;BME280;40151;43.606;1.472;2023-06-10T11:50:31;99047.53;;;25.72;54.87
54236;BME280;40151;43.606;1.472;2023-06-10T11:52:57;99047.28;;;25.76;54.84
54236;BME280;40151;43.606;1.472;2023-06-10T11:55:25;99045.31;;;25.78;54.77
54236;BME280;40151;43.606;1.472;2023-06-10T11:57:51;99043.38;;;25.80;54.61
54236;BME280;40151;43.606;1.472;2023-06-10T12:00:23;99034.38;;;25.81;54.74
54236;BME280;40151;43.606;1.472;2023-06-10T12:02:58;99038.03;;;25.80;54.54
54236;BME280;40151;43.606;1.472;2023-06-10T12:05:24;99043.09;;;25.83;54.33
54236;BME280;40151;43.606;1.472;2023-06-10T12:07:50;99036.88;;;25.82;54.75
54236;BME280;40151;43.606;1.472;2023-06-10T12:10:30;99029.59;;;25.84;54.29
54236;BME280;40151;43.606;1.472;2023-06-10T12:12:56;99035.50;;;25.88;54.32
54236;BME280;40151;43.606;1.472;2023-06-10T12:15:27;99030.03;;;25.90;54.00
54236;BME280;40151;43.606;1.472;2023-06-10T12:17:54;99029.88;;;25.91;53.91
54236;BME280;40151;43.606;1.472;2023-06-10T12:20:27;99039.59;;;25.92;54.18
54236;BME280;40151;43.606;1.472;2023-06-10T12:22:53;99020.91;;;25.92;54.20
54236;BME280;40151;43.606;1.472;2023-06-10T12:25:24;99024.25;;;25.94;53.78
54236;BME280;40151;43.606;1.472;2023-06-10T12:27:56;99021.59;;;25.94;54.22
54236;BME280;40151;43.606;1.472;2023-06-10T12:30:23;99021.59;;;25.94;54.20
54236;BME280;40151;43.606;1.472;2023-06-10T12:32:50;99013.31;;;25.97;54.07
54236;BME280;40151;43.606;1.472;2023-06-10T12:35:19;99007.97;;;25.97;54.12
54236;BME280;40151;43.606;1.472;2023-06-10T12:38:03;99004.00;;;26.01;53.87
54236;BME280;40151;43.606;1.472;2023-06-10T12:40:37;99004.88;;;26.02;53.78
54236;BME280;40151;43.606;1.472;2023-06-10T12:43:05;99000.34;;;26.03;53.71
54236;BME280;40151;43.606;1.472;2023-06-10T12:45:32;98998.41;;;26.05;53.91
54236;BME280;40151;43.606;1.472;2023-06-10T12:48:21;98999.22;;;26.05;53.91
54236;BME280;40151;43.606;1.472;2023-06-10T12:50:53;98989.41;;;26.06;53.78
54236;BME280;40151;43.606;1.472;2023-06-10T12:53:19;98988.28;;;26.08;53.64
54236;BME280;40151;43.606;1.472;2023-06-10T12:55:45;98981.94;;;26.09;53.85
54236;BME280;40151;43.606;1.472;2023-06-10T12:58:14;98978.41;;;26.09;53.88
54236;BME280;40151;43.606;1.472;2023-06-10T13:00:40;98978.16;;;26.12;53.80
54236;BME280;40151;43.606;1.472;2023-06-10T13:03:09;98979.69;;;26.14;53.64
54236;BME280;40151;43.606;1.472;2023-06-10T13:05:35;98979.56;;;26.16;53.98
54236;BME280;40151;43.606;1.472;2023-06-10T13:08:02;98967.88;;;26.17;53.66